createdAt,value
2023-05-22T00:01:13.353Z,100
2023-05-22T00:07:07.487Z,100
2023-05-22T00:13:01.498Z,100
2023-05-22T00:18:55.212Z,100
2023-05-22T00:24:47.648Z,100
2023-05-22T00:30:39.716Z,100
2023-05-22T00:36:33.561Z,100
2023-05-22T00:42:26.827Z,100
2023-05-22T00:48:21.003Z,100
2023-05-22T00:54:23.131Z,100
2023-05-22T01:00:15.054Z,100
2023-05-22T01:06:07.750Z,100
2023-05-22T01:11:59.202Z,100
2023-05-22T01:17:54.105Z,100
2023-05-22T01:23:47.851Z,100
2023-05-22T01:29:45.463Z,100
2023-05-22T01:35:38.691Z,100
2023-05-22T01:41:31.688Z,100
2023-05-22T01:47:22.601Z,100
2023-05-22T01:54:22.247Z,100
2023-05-22T02:00:12.290Z,100
2023-05-22T02:06:03.893Z,100
2023-05-22T02:11:55.518Z,100
2023-05-22T02:17:46.451Z,100
2023-05-22T02:23:39.233Z,100
2023-05-22T02:29:30.978Z,100
2023-05-22T02:35:24.544Z,100
2023-05-22T02:41:15.632Z,100
2023-05-22T02:47:07.645Z,100
2023-05-22T02:52:58.164Z,100
2023-05-22T02:58:49.178Z,100
2023-05-22T03:04:42.549Z,100
2023-05-22T03:10:34.995Z,100
2023-05-22T03:16:27.946Z,100
2023-05-22T03:22:19.851Z,100
2023-05-22T03:28:10.976Z,100
2023-05-22T03:34:03.764Z,100
2023-05-22T03:39:54.878Z,100
2023-05-22T03:45:48.500Z,100
2023-05-22T03:51:39.489Z,100
2023-05-22T03:57:33.431Z,100
2023-05-22T04:03:37.358Z,100
2023-05-22T04:09:28.501Z,100
2023-05-22T04:15:19.916Z,100
2023-05-22T04:21:14.338Z,100
2023-05-22T04:27:06.223Z,100
2023-05-22T04:32:58.688Z,100
2023-05-22T04:38:49.746Z,100
2023-05-22T04:44:41.994Z,100
2023-05-22T04:50:33.755Z,100
2023-05-22T04:56:37.808Z,100
2023-05-22T05:02:30.917Z,100
2023-05-22T05:08:21.238Z,100
2023-05-22T05:14:12.989Z,100
2023-05-22T05:20:04.682Z,100
2023-05-22T05:25:56.758Z,100
2023-05-22T05:31:47.316Z,100
2023-05-22T05:37:39.229Z,100
2023-05-22T05:43:34.169Z,100
2023-05-22T05:49:26.649Z,100
2023-05-22T05:55:20.918Z,100
2023-05-22T06:01:14.053Z,100
2023-05-22T06:07:04.720Z,100
2023-05-22T06:12:57.342Z,100
2023-05-22T06:18:50.886Z,100
2023-05-22T06:24:42.993Z,100
2023-05-22T06:30:42.181Z,100
2023-05-22T06:36:36.022Z,100
2023-05-22T06:42:27.823Z,100
2023-05-22T06:48:18.238Z,100
2023-05-22T06:54:10.504Z,100
2023-05-22T07:00:00.961Z,100
2023-05-22T07:05:54.382Z,100
2023-05-22T07:11:49.342Z,100
2023-05-22T07:17:42.416Z,100
2023-05-22T07:23:33.992Z,100
2023-05-22T07:29:26.502Z,100
2023-05-22T07:35:20.382Z,100
2023-05-22T07:41:11.865Z,100
2023-05-22T07:47:05.365Z,100
2023-05-22T07:52:58.943Z,99.9
2023-05-22T07:58:50.430Z,99.3
2023-05-22T08:04:46.387Z,99.4
2023-05-22T08:11:02.816Z,99.4
2023-05-22T08:16:54.655Z,97.5
2023-05-22T08:22:46.812Z,97.5
2023-05-22T08:28:41.515Z,95.5
2023-05-22T08:34:34.044Z,93.9
2023-05-22T08:40:25.747Z,94.2
2023-05-22T08:46:17.747Z,93.5
2023-05-22T08:52:10.179Z,94.3
2023-05-22T08:58:03.244Z,94.2
2023-05-22T09:03:54.614Z,94.6
2023-05-22T09:09:45.463Z,93
2023-05-22T09:15:36.729Z,92
2023-05-22T09:21:32.235Z,90.2
2023-05-22T09:27:24.270Z,90.9
2023-05-22T09:33:16.500Z,91
2023-05-22T09:39:10.727Z,89.9
2023-05-22T09:45:01.913Z,89.2
2023-05-22T09:50:53.184Z,89.2
2023-05-22T09:56:45.790Z,86.6
2023-05-22T10:02:39.683Z,86.9
2023-05-22T10:08:31.522Z,85.4
2023-05-22T10:14:22.626Z,86.1
2023-05-22T10:20:19.701Z,85.1
2023-05-22T10:26:11.707Z,86
2023-05-22T10:32:03.863Z,86.3
2023-05-22T10:37:55.432Z,84.6
2023-05-22T10:43:48.103Z,85.1
2023-05-22T10:49:39.892Z,84.3
2023-05-22T10:55:32.528Z,84
2023-05-22T11:01:38.047Z,83.4
2023-05-22T11:07:57.039Z,83.9
2023-05-22T11:14:04.780Z,84.3
2023-05-22T11:20:01.145Z,84.7
2023-05-22T11:25:54.863Z,83.9
2023-05-22T11:31:47.038Z,83.4
2023-05-22T11:37:41.254Z,83.6
2023-05-22T11:43:35.092Z,81.3
2023-05-22T11:49:27.760Z,80
2023-05-22T12:02:07.099Z,81.1
2023-05-22T12:07:59.969Z,81.2
2023-05-22T12:13:51.907Z,80.2
2023-05-22T12:20:00.321Z,79.3
2023-05-22T12:26:08.129Z,79.6
2023-05-22T12:32:09.637Z,80.8
2023-05-22T12:38:08.671Z,77.5
2023-05-22T12:44:04.119Z,79.9
2023-05-22T12:49:58.010Z,78.9
2023-05-22T12:55:52.655Z,79.7
2023-05-22T13:01:58.986Z,78.6
2023-05-22T13:08:01.314Z,79.2
2023-05-22T13:20:44.536Z,79.8
2023-05-22T13:26:59.556Z,78.6
2023-05-22T13:39:25.939Z,78.8
2023-05-22T13:58:57.732Z,77
2023-05-22T14:05:36.556Z,76.6
2023-05-22T14:25:54.529Z,76.6
2023-05-22T14:32:00.891Z,76.1
2023-05-22T14:45:04.916Z,75.4
2023-05-22T14:51:32.412Z,76
2023-05-22T14:57:38.840Z,75.2
2023-05-22T15:17:53.548Z,74.2
2023-05-22T15:37:33.080Z,73.6
2023-05-22T15:50:35.432Z,75.4
2023-05-22T15:56:52.390Z,74.6
2023-05-22T16:24:24.413Z,75.7
2023-05-22T16:30:38.212Z,76.6
2023-05-22T17:44:50.140Z,80.5
2023-05-22T17:51:14.432Z,81.4
2023-05-22T18:10:18.900Z,82.3
2023-05-22T18:16:42.261Z,82.5
2023-05-22T18:50:06.320Z,84.8
2023-05-22T18:56:05.709Z,85.2
2023-05-22T19:01:57.197Z,86.7
2023-05-22T19:07:51.348Z,86.4
2023-05-22T19:13:44.656Z,86.8
2023-05-22T19:19:37.174Z,86.7
2023-05-22T19:25:29.882Z,87.3
2023-05-22T19:31:21.746Z,88.6
2023-05-22T19:37:14.743Z,89.5
2023-05-22T19:43:06.712Z,89.6
2023-05-22T19:48:59.361Z,90.3
2023-05-22T19:54:51.452Z,91.2
2023-05-22T20:00:44.244Z,91.8
2023-05-22T20:06:37.308Z,92.7
2023-05-22T20:12:29.251Z,92
2023-05-22T20:18:21.312Z,91.8
2023-05-22T20:24:14.282Z,91.8
2023-05-22T20:30:06.599Z,93.3
2023-05-22T20:35:58.626Z,92.3
2023-05-22T20:41:50.392Z,92.3
2023-05-22T20:47:42.766Z,91.8
2023-05-22T20:53:34.691Z,92
2023-05-22T20:59:25.260Z,92.8
2023-05-22T21:05:18.855Z,92.7
2023-05-22T21:11:10.833Z,92.5
2023-05-22T21:17:02.901Z,92.9
2023-05-22T21:22:55.595Z,93.2
2023-05-22T21:28:47.894Z,93.6
2023-05-22T21:34:40.127Z,94.8
2023-05-22T21:40:31.952Z,95.4
2023-05-22T21:46:24.491Z,95.4
2023-05-22T21:52:17.023Z,94.9
2023-05-22T21:58:09.356Z,95.1
2023-05-22T22:04:01.829Z,95.7
2023-05-22T22:09:54.926Z,96.4
2023-05-22T22:15:47.198Z,97.8
2023-05-22T22:21:39.476Z,98.2
2023-05-22T22:27:30.130Z,98.6
2023-05-22T22:33:22.404Z,97.6
2023-05-22T22:39:14.405Z,96.5
2023-05-22T22:45:06.824Z,95.9
2023-05-22T22:50:58.782Z,95.4
2023-05-22T22:56:50.203Z,93.7
2023-05-22T23:02:43.189Z,92.5
2023-05-22T23:08:35.737Z,92.7
2023-05-22T23:14:29.942Z,91.3
2023-05-22T23:20:22.209Z,93
2023-05-22T23:26:15.029Z,92.7
2023-05-22T23:32:07.001Z,93.3
2023-05-22T23:38:02.491Z,94.4
2023-05-22T23:43:54.620Z,94.7
2023-05-22T23:49:46.650Z,95.9
2023-05-22T23:55:40.436Z,95.3
